createdAt,value
2019-03-18T00:00:10.938Z,2.97
2019-03-18T00:02:39.959Z,3.40
2019-03-18T00:05:07.249Z,1.83
2019-03-18T00:07:34.429Z,2.70
2019-03-18T00:10:06.797Z,2.63
2019-03-18T00:12:33.970Z,5.60
2019-03-18T00:15:02.259Z,3.00
2019-03-18T00:17:31.157Z,6.80
2019-03-18T00:19:58.345Z,3.47
2019-03-18T00:22:25.513Z,4.67
2019-03-18T00:24:55.842Z,2.67
2019-03-18T00:27:23.160Z,3.03
2019-03-18T00:29:50.415Z,3.67
2019-03-18T00:32:17.483Z,2.33
2019-03-18T00:34:44.592Z,2.13
2019-03-18T00:37:11.720Z,2.03
2019-03-18T00:39:38.800Z,2.10
2019-03-18T00:42:05.630Z,2.47
2019-03-18T00:44:32.427Z,2.40
2019-03-18T00:47:00.451Z,1.77
2019-03-18T00:49:27.111Z,1.67
2019-03-18T00:51:53.751Z,1.97
2019-03-18T00:54:20.730Z,2.37
2019-03-18T00:56:47.525Z,3.93
2019-03-18T00:59:14.177Z,3.37
2019-03-18T01:01:40.726Z,5.17
2019-03-18T01:04:07.451Z,1.77
2019-03-18T01:06:37.396Z,2.17
2019-03-18T01:09:05.554Z,2.00
2019-03-18T01:11:32.750Z,1.27
2019-03-18T01:13:59.338Z,2.37
2019-03-18T01:16:25.887Z,1.10
2019-03-18T01:18:52.466Z,1.73
2019-03-18T01:21:19.031Z,2.50
2019-03-18T01:23:45.594Z,2.00
2019-03-18T01:26:12.183Z,2.23
2019-03-18T01:28:38.777Z,3.33
2019-03-18T01:31:05.326Z,2.97
2019-03-18T01:33:31.978Z,4.03
2019-03-18T01:36:56.077Z,2.80
2019-03-18T01:39:26.071Z,3.90
2019-03-18T01:41:52.711Z,1.23
2019-03-18T01:44:19.324Z,6.93
2019-03-18T01:46:45.952Z,2.33
2019-03-18T01:49:12.505Z,3.97
2019-03-18T01:51:39.059Z,1.77
2019-03-18T01:54:05.794Z,2.73
2019-03-18T01:56:32.384Z,2.77
2019-03-18T01:58:59.008Z,4.17
2019-03-18T02:01:25.693Z,3.07
2019-03-18T02:03:52.252Z,4.07
2019-03-18T02:06:18.841Z,3.07
2019-03-18T02:08:45.419Z,4.77
2019-03-18T02:11:12.090Z,3.03
2019-03-18T02:13:38.755Z,3.93
2019-03-18T02:16:05.374Z,6.97
2019-03-18T02:18:31.939Z,4.27
2019-03-18T02:20:58.501Z,3.80
2019-03-18T02:23:25.144Z,4.97
2019-03-18T02:25:51.764Z,3.10
2019-03-18T02:28:18.415Z,2.20
2019-03-18T02:30:45.115Z,1.53
2019-03-18T02:33:11.674Z,2.53
2019-03-18T02:35:38.291Z,1.80
2019-03-18T02:38:04.913Z,2.73
2019-03-18T02:40:32.905Z,2.90
2019-03-18T02:43:55.622Z,2.20
2019-03-18T02:46:22.355Z,3.03
2019-03-18T02:48:48.957Z,2.77
2019-03-18T02:51:15.646Z,3.10
2019-03-18T02:53:42.240Z,3.07
2019-03-18T02:56:09.097Z,2.97
2019-03-18T02:58:35.731Z,2.07
2019-03-18T03:01:02.388Z,2.33
2019-03-18T03:03:29.013Z,0.93
2019-03-18T03:05:58.867Z,1.87
2019-03-18T03:08:25.588Z,3.93
2019-03-18T03:10:52.418Z,2.60
2019-03-18T03:13:19.024Z,5.97
2019-03-18T03:15:45.777Z,5.70
2019-03-18T03:18:12.464Z,2.60
2019-03-18T03:20:39.093Z,4.60
2019-03-18T03:23:05.680Z,2.73
2019-03-18T03:25:32.345Z,2.87
2019-03-18T03:27:58.917Z,1.57
2019-03-18T03:30:25.511Z,3.10
2019-03-18T03:32:52.072Z,4.70
2019-03-18T03:35:18.645Z,6.23
2019-03-18T03:37:45.270Z,4.33
2019-03-18T03:40:12.417Z,3.87
2019-03-18T03:42:39.238Z,2.13
2019-03-18T03:45:11.190Z,2.07
2019-03-18T03:47:37.764Z,2.83
2019-03-18T03:50:09.369Z,2.90
2019-03-18T03:52:36.058Z,4.87
2019-03-18T03:55:07.057Z,5.23
2019-03-18T03:57:33.686Z,2.30
2019-03-18T04:00:01.743Z,4.33
2019-03-18T04:02:28.703Z,2.23
2019-03-18T04:04:55.671Z,2.33
2019-03-18T04:07:22.331Z,3.43
2019-03-18T04:09:49.157Z,2.97
2019-03-18T04:12:15.718Z,4.37
2019-03-18T04:14:42.292Z,3.67
2019-03-18T04:17:08.844Z,4.77
2019-03-18T04:19:36.933Z,4.50
2019-03-18T04:22:03.753Z,5.53
2019-03-18T04:24:30.368Z,2.80
2019-03-18T04:26:56.941Z,3.53
2019-03-18T04:29:23.565Z,4.27
2019-03-18T04:31:50.767Z,4.20
2019-03-18T04:34:17.388Z,3.30
2019-03-18T04:36:44.045Z,4.83
2019-03-18T04:39:10.622Z,4.10
2019-03-18T04:41:37.164Z,4.00
2019-03-18T04:44:03.853Z,7.97
2019-03-18T04:46:30.436Z,5.40
2019-03-18T04:48:57.036Z,2.50
2019-03-18T04:51:23.716Z,4.30
2019-03-18T04:53:50.283Z,3.80
2019-03-18T04:56:16.970Z,6.80
2019-03-18T04:58:43.579Z,7.37
2019-03-18T05:01:10.147Z,7.30
2019-03-18T05:03:36.766Z,4.33
2019-03-18T05:06:03.482Z,5.90
2019-03-18T05:08:30.109Z,5.33
2019-03-18T05:10:57.979Z,7.30
2019-03-18T05:13:26.534Z,4.07
2019-03-18T05:15:52.987Z,5.73
2019-03-18T05:18:19.579Z,4.67
2019-03-18T05:20:46.149Z,4.67
2019-03-18T05:23:12.703Z,5.27
2019-03-18T05:25:39.275Z,6.60
2019-03-18T05:28:05.895Z,5.73
2019-03-18T05:30:32.466Z,7.37
2019-03-18T05:32:59.090Z,5.47
2019-03-18T05:35:25.761Z,5.43
2019-03-18T05:37:52.455Z,8.07
2019-03-18T05:40:19.042Z,5.57
2019-03-18T05:42:45.677Z,4.20
2019-03-18T05:45:12.367Z,5.67
2019-03-18T05:47:39.900Z,4.00
2019-03-18T05:50:10.022Z,6.33
2019-03-18T05:52:38.037Z,7.67
2019-03-18T05:55:07.200Z,9.97
2019-03-18T05:57:33.794Z,8.77
2019-03-18T06:00:00.507Z,11.33
2019-03-18T06:02:27.173Z,7.37
2019-03-18T06:04:53.910Z,9.17
2019-03-18T06:07:20.673Z,8.00
2019-03-18T06:09:47.281Z,14.13
2019-03-18T06:12:13.842Z,10.20
2019-03-18T06:14:40.442Z,11.00
2019-03-18T06:17:07.012Z,6.73
2019-03-18T06:19:33.713Z,9.10
2019-03-18T06:22:00.422Z,6.40
2019-03-18T06:24:28.435Z,7.73
2019-03-18T06:26:55.011Z,9.83
2019-03-18T06:29:21.857Z,8.53
2019-03-18T06:31:48.573Z,8.47
2019-03-18T06:34:15.176Z,10.93
2019-03-18T06:36:41.927Z,10.23
2019-03-18T06:39:08.670Z,10.57
2019-03-18T06:41:35.304Z,8.20
2019-03-18T06:44:02.167Z,8.80
2019-03-18T06:46:28.900Z,10.23
2019-03-18T06:48:55.601Z,7.60
2019-03-18T06:51:22.348Z,8.73
2019-03-18T06:53:48.986Z,11.50
2019-03-18T06:56:16.680Z,11.00
2019-03-18T06:58:43.245Z,9.07
2019-03-18T07:01:09.790Z,10.13
2019-03-18T07:03:36.415Z,10.63
2019-03-18T07:06:03.273Z,7.67
2019-03-18T07:08:30.106Z,11.43
2019-03-18T07:10:56.941Z,13.10
2019-03-18T07:13:23.611Z,9.07
2019-03-18T07:15:50.197Z,12.73
2019-03-18T07:18:18.453Z,12.10
2019-03-18T07:20:45.295Z,12.73
2019-03-18T07:24:08.147Z,18.63
2019-03-18T07:26:34.679Z,13.80
2019-03-18T07:29:01.411Z,13.07
2019-03-18T07:31:28.168Z,15.73
2019-03-18T07:33:54.758Z,10.83
2019-03-18T07:36:21.607Z,11.57
2019-03-18T07:38:48.315Z,11.70
2019-03-18T07:41:14.976Z,8.40
2019-03-18T07:43:41.543Z,5.90
2019-03-18T07:46:08.206Z,8.73
2019-03-18T07:48:34.780Z,6.10
2019-03-18T07:51:01.557Z,7.20
2019-03-18T07:53:28.196Z,7.97
2019-03-18T07:55:54.843Z,8.67
2019-03-18T07:58:22.540Z,6.47
2019-03-18T08:00:49.613Z,9.00
2019-03-18T08:03:16.328Z,9.80
2019-03-18T20:57:15.458Z,25.73
2019-03-18T20:59:42.445Z,20.10
2019-03-18T21:02:09.038Z,21.40
2019-03-18T21:04:35.693Z,21.53
2019-03-18T21:07:02.519Z,21.33
2019-03-18T21:09:29.119Z,20.47
2019-03-18T21:11:55.995Z,25.63
2019-03-18T21:14:22.871Z,22.93
2019-03-18T21:16:49.737Z,22.50
2019-03-18T21:19:16.530Z,24.67
2019-03-18T21:21:43.180Z,23.40
2019-03-18T21:24:09.871Z,21.03
2019-03-18T21:26:36.476Z,25.43
2019-03-18T21:29:03.453Z,27.03
2019-03-18T21:31:30.222Z,24.03
2019-03-18T21:33:56.932Z,25.77
2019-03-18T21:36:36.828Z,22.07
2019-03-18T21:38:52.331Z,24.10
2019-03-18T21:41:18.985Z,23.50
2019-03-18T21:43:45.766Z,29.27
2019-03-18T21:46:12.415Z,24.07
2019-03-18T21:48:40.034Z,27.97
2019-03-18T21:51:06.654Z,31.00
2019-03-18T21:53:33.382Z,23.53
2019-03-18T21:56:00.181Z,21.87
2019-03-18T21:58:26.790Z,19.80
2019-03-18T22:00:53.362Z,22.07
2019-03-18T22:03:20.209Z,26.07
2019-03-18T22:05:46.782Z,25.80
2019-03-18T22:09:09.794Z,32.57
2019-03-18T22:11:36.598Z,28.00
2019-03-18T22:14:03.574Z,25.00
2019-03-18T22:16:30.349Z,25.23
2019-03-18T22:18:56.920Z,25.67
2019-03-18T22:21:25.086Z,24.43
2019-03-18T22:23:52.073Z,30.37
2019-03-18T22:26:18.751Z,26.07
2019-03-18T22:28:45.479Z,25.87
2019-03-18T22:31:12.457Z,28.93
2019-03-18T22:33:39.077Z,23.43
2019-03-18T22:36:05.711Z,24.07
2019-03-18T22:38:32.711Z,26.70
2019-03-18T22:40:59.305Z,25.50
2019-03-18T22:43:25.885Z,23.23
2019-03-18T22:45:52.526Z,23.83
2019-03-18T22:48:19.099Z,24.20
2019-03-18T22:50:45.722Z,24.83
2019-03-18T22:53:12.335Z,25.57
2019-03-18T22:55:38.913Z,22.17
2019-03-18T22:58:05.645Z,27.23
2019-03-18T23:00:32.532Z,25.23
2019-03-18T23:03:01.310Z,21.30
2019-03-18T23:05:28.038Z,18.47
2019-03-18T23:07:54.718Z,24.47
2019-03-18T23:10:21.489Z,22.77
2019-03-18T23:12:49.200Z,26.03
2019-03-18T23:15:15.916Z,27.43
2019-03-18T23:17:42.672Z,35.63
2019-03-18T23:20:09.597Z,30.33
2019-03-18T23:22:36.166Z,32.10
2019-03-18T23:25:07.790Z,25.40
2019-03-18T23:27:34.947Z,22.97
2019-03-18T23:30:04.183Z,28.43
2019-03-18T23:32:31.012Z,24.53
2019-03-18T23:34:57.572Z,27.57
2019-03-18T23:37:24.339Z,20.37
2019-03-18T23:39:51.123Z,23.23
2019-03-18T23:42:17.903Z,24.87
2019-03-18T23:44:44.490Z,30.83
2019-03-18T23:47:11.104Z,27.97
2019-03-18T23:49:38.893Z,23.57
2019-03-18T23:52:05.688Z,25.60
2019-03-18T23:54:32.354Z,22.83
2019-03-18T23:56:58.916Z,25.70
2019-03-18T23:59:25.645Z,18.20
